sensor_id;sensor_type;location;lat;lon;timestamp;P1;durP1;ratioP1;P2;durP2;ratioP2
56173;SDS011;42058;52.308;20.924;2022-11-13T00:00:10;39.20;;;22.98;;
56173;SDS011;42058;52.308;20.924;2022-11-13T00:02:57;38.88;;;22.20;;
56173;SDS011;42058;52.308;20.924;2022-11-13T00:05:42;40.52;;;21.87;;
56173;SDS011;42058;52.308;20.924;2022-11-13T00:08:27;36.95;;;20.32;;
56173;SDS011;42058;52.308;20.924;2022-11-13T00:11:13;37.90;;;21.33;;
56173;SDS011;42058;52.308;20.924;2022-11-13T00:14:01;37.35;;;21.12;;
56173;SDS011;42058;52.308;20.924;2022-11-13T00:16:45;37.17;;;20.85;;
56173;SDS011;42058;52.308;20.924;2022-11-13T00:19:30;38.78;;;21.25;;
56173;SDS011;42058;52.308;20.924;2022-11-13T00:22:15;38.38;;;20.55;;
56173;SDS011;42058;52.308;20.924;2022-11-13T00:25:00;35.65;;;20.40;;
56173;SDS011;42058;52.308;20.924;2022-11-13T00:27:44;38.20;;;21.57;;
56173;SDS011;42058;52.308;20.924;2022-11-13T00:30:28;36.85;;;20.85;;
56173;SDS011;42058;52.308;20.924;2022-11-13T00:33:13;38.63;;;21.77;;
56173;SDS011;42058;52.308;20.924;2022-11-13T00:36:05;44.00;;;22.00;;
56173;SDS011;42058;52.308;20.924;2022-11-13T00:38:50;37.93;;;20.77;;
56173;SDS011;42058;52.308;20.924;2022-11-13T00:41:36;38.70;;;21.40;;
56173;SDS011;42058;52.308;20.924;2022-11-13T00:44:21;42.38;;;23.40;;
56173;SDS011;42058;52.308;20.924;2022-11-13T00:47:06;44.45;;;23.05;;
56173;SDS011;42058;52.308;20.924;2022-11-13T00:49:50;44.13;;;22.82;;
56173;SDS011;42058;52.308;20.924;2022-11-13T00:52:35;44.77;;;23.00;;
56173;SDS011;42058;52.308;20.924;2022-11-13T00:55:20;44.38;;;23.42;;
56173;SDS011;42058;52.308;20.924;2022-11-13T00:58:04;40.80;;;22.17;;
56173;SDS011;42058;52.308;20.924;2022-11-13T01:00:49;45.55;;;23.07;;
56173;SDS011;42058;52.308;20.924;2022-11-13T01:03:33;37.15;;;20.75;;
56173;SDS011;42058;52.308;20.924;2022-11-13T01:06:19;42.93;;;22.20;;
56173;SDS011;42058;52.308;20.924;2022-11-13T01:09:09;40.90;;;21.75;;
56173;SDS011;42058;52.308;20.924;2022-11-13T01:11:53;44.77;;;22.50;;
56173;SDS011;42058;52.308;20.924;2022-11-13T01:14:38;41.30;;;21.65;;
56173;SDS011;42058;52.308;20.924;2022-11-13T01:17:22;39.83;;;22.40;;
56173;SDS011;42058;52.308;20.924;2022-11-13T01:20:07;40.78;;;20.97;;
56173;SDS011;42058;52.308;20.924;2022-11-13T01:22:53;40.00;;;21.82;;
56173;SDS011;42058;52.308;20.924;2022-11-13T01:25:38;41.92;;;21.42;;
56173;SDS011;42058;52.308;20.924;2022-11-13T01:28:22;38.48;;;21.55;;
56173;SDS011;42058;52.308;20.924;2022-11-13T01:31:08;38.85;;;22.00;;
56173;SDS011;42058;52.308;20.924;2022-11-13T01:33:57;40.83;;;22.00;;
56173;SDS011;42058;52.308;20.924;2022-11-13T01:36:42;39.15;;;21.77;;
56173;SDS011;42058;52.308;20.924;2022-11-13T01:39:27;43.13;;;22.67;;
56173;SDS011;42058;52.308;20.924;2022-11-13T01:42:11;37.90;;;20.82;;
56173;SDS011;42058;52.308;20.924;2022-11-13T01:44:57;38.48;;;21.57;;
56173;SDS011;42058;52.308;20.924;2022-11-13T01:47:43;44.13;;;22.40;;
56173;SDS011;42058;52.308;20.924;2022-11-13T01:50:28;40.25;;;22.48;;
56173;SDS011;42058;52.308;20.924;2022-11-13T01:53:13;45.90;;;23.85;;
56173;SDS011;42058;52.308;20.924;2022-11-13T01:55:58;44.48;;;23.80;;
56173;SDS011;42058;52.308;20.924;2022-11-13T01:58:43;42.55;;;23.55;;
56173;SDS011;42058;52.308;20.924;2022-11-13T02:01:42;48.25;;;24.50;;
56173;SDS011;42058;52.308;20.924;2022-11-13T02:04:26;44.10;;;23.22;;
56173;SDS011;42058;52.308;20.924;2022-11-13T02:07:13;45.78;;;22.13;;
56173;SDS011;42058;52.308;20.924;2022-11-13T02:09:59;41.98;;;22.13;;
56173;SDS011;42058;52.308;20.924;2022-11-13T02:12:48;41.37;;;21.35;;
56173;SDS011;42058;52.308;20.924;2022-11-13T02:15:35;39.85;;;21.90;;
56173;SDS011;42058;52.308;20.924;2022-11-13T02:18:20;41.88;;;22.30;;
56173;SDS011;42058;52.308;20.924;2022-11-13T02:21:14;42.65;;;22.32;;
56173;SDS011;42058;52.308;20.924;2022-11-13T02:27:14;44.35;;;22.35;;
56173;SDS011;42058;52.308;20.924;2022-11-13T02:36:13;44.03;;;23.05;;
56173;SDS011;42058;52.308;20.924;2022-11-13T02:39:00;49.27;;;24.45;;
56173;SDS011;42058;52.308;20.924;2022-11-13T02:41:48;44.95;;;23.57;;
56173;SDS011;42058;52.308;20.924;2022-11-13T02:44:33;47.83;;;23.00;;
56173;SDS011;42058;52.308;20.924;2022-11-13T02:47:18;45.05;;;22.98;;
56173;SDS011;42058;52.308;20.924;2022-11-13T02:50:02;45.55;;;23.30;;
56173;SDS011;42058;52.308;20.924;2022-11-13T02:52:48;46.18;;;24.92;;
56173;SDS011;42058;52.308;20.924;2022-11-13T02:55:33;48.60;;;23.35;;
56173;SDS011;42058;52.308;20.924;2022-11-13T02:58:18;45.23;;;22.70;;
56173;SDS011;42058;52.308;20.924;2022-11-13T03:01:02;47.15;;;22.20;;
56173;SDS011;42058;52.308;20.924;2022-11-13T03:03:47;42.73;;;22.10;;
56173;SDS011;42058;52.308;20.924;2022-11-13T03:06:32;50.90;;;25.48;;
56173;SDS011;42058;52.308;20.924;2022-11-13T03:09:17;41.98;;;22.37;;
56173;SDS011;42058;52.308;20.924;2022-11-13T03:12:01;46.42;;;22.45;;
56173;SDS011;42058;52.308;20.924;2022-11-13T03:14:46;43.40;;;22.75;;
56173;SDS011;42058;52.308;20.924;2022-11-13T03:17:30;39.95;;;22.25;;
56173;SDS011;42058;52.308;20.924;2022-11-13T03:20:16;43.38;;;21.87;;
56173;SDS011;42058;52.308;20.924;2022-11-13T03:23:01;43.05;;;22.10;;
56173;SDS011;42058;52.308;20.924;2022-11-13T03:25:46;43.75;;;21.85;;
56173;SDS011;42058;52.308;20.924;2022-11-13T03:28:31;41.53;;;21.97;;
56173;SDS011;42058;52.308;20.924;2022-11-13T03:31:17;43.73;;;21.85;;
56173;SDS011;42058;52.308;20.924;2022-11-13T03:34:02;44.85;;;22.55;;
56173;SDS011;42058;52.308;20.924;2022-11-13T03:36:46;44.50;;;22.82;;
56173;SDS011;42058;52.308;20.924;2022-11-13T03:39:31;43.78;;;23.35;;
56173;SDS011;42058;52.308;20.924;2022-11-13T03:42:15;48.25;;;23.32;;
56173;SDS011;42058;52.308;20.924;2022-11-13T03:45:00;44.30;;;22.77;;
56173;SDS011;42058;52.308;20.924;2022-11-13T03:47:44;47.17;;;23.15;;
56173;SDS011;42058;52.308;20.924;2022-11-13T03:50:29;46.40;;;23.42;;
56173;SDS011;42058;52.308;20.924;2022-11-13T03:53:14;48.15;;;22.65;;
56173;SDS011;42058;52.308;20.924;2022-11-13T03:55:58;43.00;;;22.00;;
56173;SDS011;42058;52.308;20.924;2022-11-13T03:58:44;45.28;;;22.40;;
56173;SDS011;42058;52.308;20.924;2022-11-13T04:01:28;45.15;;;22.95;;
56173;SDS011;42058;52.308;20.924;2022-11-13T04:04:13;48.92;;;23.52;;
56173;SDS011;42058;52.308;20.924;2022-11-13T04:06:58;45.98;;;23.00;;
56173;SDS011;42058;52.308;20.924;2022-11-13T04:09:43;47.60;;;22.05;;
56173;SDS011;42058;52.308;20.924;2022-11-13T04:12:27;44.90;;;22.42;;
56173;SDS011;42058;52.308;20.924;2022-11-13T04:15:12;50.70;;;23.47;;
56173;SDS011;42058;52.308;20.924;2022-11-13T04:17:56;45.00;;;22.48;;
56173;SDS011;42058;52.308;20.924;2022-11-13T04:20:41;48.90;;;24.05;;
56173;SDS011;42058;52.308;20.924;2022-11-13T04:23:26;53.68;;;23.98;;
56173;SDS011;42058;52.308;20.924;2022-11-13T04:26:11;48.02;;;22.37;;
56173;SDS011;42058;52.308;20.924;2022-11-13T04:28:55;49.75;;;22.05;;
56173;SDS011;42058;52.308;20.924;2022-11-13T04:31:40;45.45;;;21.40;;
56173;SDS011;42058;52.308;20.924;2022-11-13T04:34:25;52.40;;;23.25;;
56173;SDS011;42058;52.308;20.924;2022-11-13T04:37:09;48.63;;;23.67;;
56173;SDS011;42058;52.308;20.924;2022-11-13T04:39:54;50.25;;;23.35;;
56173;SDS011;42058;52.308;20.924;2022-11-13T04:42:38;48.35;;;24.12;;
56173;SDS011;42058;52.308;20.924;2022-11-13T04:45:32;46.35;;;19.85;;
56173;SDS011;42058;52.308;20.924;2022-11-13T04:48:18;46.00;;;21.30;;
56173;SDS011;42058;52.308;20.924;2022-11-13T04:51:03;46.85;;;21.97;;
56173;SDS011;42058;52.308;20.924;2022-11-13T04:53:48;42.80;;;20.82;;
56173;SDS011;42058;52.308;20.924;2022-11-13T04:56:33;42.98;;;21.15;;
56173;SDS011;42058;52.308;20.924;2022-11-13T04:59:17;41.00;;;20.48;;
56173;SDS011;42058;52.308;20.924;2022-11-13T05:02:02;45.23;;;20.90;;
56173;SDS011;42058;52.308;20.924;2022-11-13T05:04:47;45.28;;;20.05;;
56173;SDS011;42058;52.308;20.924;2022-11-13T05:07:32;44.58;;;20.97;;
56173;SDS011;42058;52.308;20.924;2022-11-13T05:10:16;42.65;;;20.30;;
56173;SDS011;42058;52.308;20.924;2022-11-13T05:13:01;43.50;;;20.65;;
56173;SDS011;42058;52.308;20.924;2022-11-13T05:15:46;41.13;;;20.00;;
56173;SDS011;42058;52.308;20.924;2022-11-13T05:18:30;40.83;;;19.62;;
56173;SDS011;42058;52.308;20.924;2022-11-13T05:21:16;42.27;;;20.72;;
56173;SDS011;42058;52.308;20.924;2022-11-13T05:24:02;44.30;;;21.42;;
56173;SDS011;42058;52.308;20.924;2022-11-13T05:26:47;41.73;;;20.88;;
56173;SDS011;42058;52.308;20.924;2022-11-13T05:29:32;44.03;;;20.20;;
56173;SDS011;42058;52.308;20.924;2022-11-13T05:32:16;42.43;;;20.88;;
56173;SDS011;42058;52.308;20.924;2022-11-13T05:35:01;47.67;;;21.55;;
56173;SDS011;42058;52.308;20.924;2022-11-13T05:37:45;45.73;;;22.10;;
56173;SDS011;42058;52.308;20.924;2022-11-13T05:40:30;47.75;;;22.73;;
56173;SDS011;42058;52.308;20.924;2022-11-13T05:43:15;43.92;;;21.60;;
56173;SDS011;42058;52.308;20.924;2022-11-13T05:46:00;43.25;;;21.30;;
56173;SDS011;42058;52.308;20.924;2022-11-13T05:48:56;39.18;;;19.80;;
56173;SDS011;42058;52.308;20.924;2022-11-13T05:51:43;41.13;;;20.60;;
56173;SDS011;42058;52.308;20.924;2022-11-13T05:54:27;45.40;;;20.08;;
56173;SDS011;42058;52.308;20.924;2022-11-13T05:57:12;46.08;;;20.85;;
56173;SDS011;42058;52.308;20.924;2022-11-13T05:59:56;43.90;;;20.45;;
56173;SDS011;42058;52.308;20.924;2022-11-13T06:02:41;43.65;;;20.48;;
56173;SDS011;42058;52.308;20.924;2022-11-13T06:05:26;42.40;;;22.10;;
56173;SDS011;42058;52.308;20.924;2022-11-13T06:08:11;47.75;;;21.90;;
56173;SDS011;42058;52.308;20.924;2022-11-13T06:10:59;48.30;;;21.75;;
56173;SDS011;42058;52.308;20.924;2022-11-13T06:13:46;43.30;;;21.07;;
56173;SDS011;42058;52.308;20.924;2022-11-13T06:16:35;43.78;;;21.57;;
56173;SDS011;42058;52.308;20.924;2022-11-13T06:19:21;47.48;;;21.90;;
56173;SDS011;42058;52.308;20.924;2022-11-13T06:22:06;42.05;;;21.12;;
56173;SDS011;42058;52.308;20.924;2022-11-13T06:24:51;45.52;;;22.02;;
56173;SDS011;42058;52.308;20.924;2022-11-13T06:27:35;43.08;;;22.10;;
56173;SDS011;42058;52.308;20.924;2022-11-13T06:30:20;44.38;;;21.37;;
56173;SDS011;42058;52.308;20.924;2022-11-13T06:33:04;44.20;;;22.52;;
56173;SDS011;42058;52.308;20.924;2022-11-13T06:35:49;49.58;;;23.25;;
56173;SDS011;42058;52.308;20.924;2022-11-13T06:38:35;50.98;;;23.35;;
56173;SDS011;42058;52.308;20.924;2022-11-13T06:41:22;46.83;;;22.75;;
56173;SDS011;42058;52.308;20.924;2022-11-13T06:44:12;46.60;;;22.55;;
56173;SDS011;42058;52.308;20.924;2022-11-13T06:46:57;48.28;;;23.05;;
56173;SDS011;42058;52.308;20.924;2022-11-13T06:49:41;53.10;;;23.50;;
56173;SDS011;42058;52.308;20.924;2022-11-13T06:52:26;48.08;;;22.48;;
56173;SDS011;42058;52.308;20.924;2022-11-13T06:55:10;43.35;;;21.90;;
56173;SDS011;42058;52.308;20.924;2022-11-13T06:57:55;46.77;;;22.50;;
56173;SDS011;42058;52.308;20.924;2022-11-13T07:00:40;47.30;;;22.90;;
56173;SDS011;42058;52.308;20.924;2022-11-13T07:03:26;49.67;;;22.70;;
56173;SDS011;42058;52.308;20.924;2022-11-13T07:06:19;42.95;;;21.62;;
56173;SDS011;42058;52.308;20.924;2022-11-13T07:09:03;43.63;;;21.42;;
56173;SDS011;42058;52.308;20.924;2022-11-13T07:11:47;46.30;;;22.10;;
56173;SDS011;42058;52.308;20.924;2022-11-13T07:14:32;43.50;;;21.02;;
56173;SDS011;42058;52.308;20.924;2022-11-13T07:17:16;42.62;;;20.45;;
56173;SDS011;42058;52.308;20.924;2022-11-13T07:20:01;42.05;;;22.13;;
56173;SDS011;42058;52.308;20.924;2022-11-13T07:22:47;41.42;;;21.17;;
56173;SDS011;42058;52.308;20.924;2022-11-13T07:25:31;39.45;;;20.60;;
56173;SDS011;42058;52.308;20.924;2022-11-13T07:28:16;40.55;;;20.75;;
56173;SDS011;42058;52.308;20.924;2022-11-13T07:31:01;42.40;;;20.45;;
56173;SDS011;42058;52.308;20.924;2022-11-13T07:33:47;41.10;;;19.42;;
56173;SDS011;42058;52.308;20.924;2022-11-13T07:36:37;39.75;;;20.02;;
56173;SDS011;42058;52.308;20.924;2022-11-13T07:39:24;39.15;;;18.17;;
56173;SDS011;42058;52.308;20.924;2022-11-13T07:42:06;36.63;;;18.55;;
56173;SDS011;42058;52.308;20.924;2022-11-13T07:44:51;44.30;;;19.92;;
56173;SDS011;42058;52.308;20.924;2022-11-13T07:47:36;36.93;;;18.65;;
56173;SDS011;42058;52.308;20.924;2022-11-13T07:50:22;40.67;;;19.10;;
56173;SDS011;42058;52.308;20.924;2022-11-13T07:53:07;39.50;;;18.95;;
56173;SDS011;42058;52.308;20.924;2022-11-13T07:55:53;40.75;;;19.20;;
56173;SDS011;42058;52.308;20.924;2022-11-13T07:58:37;37.05;;;18.40;;
56173;SDS011;42058;52.308;20.924;2022-11-13T08:01:22;42.80;;;19.35;;
56173;SDS011;42058;52.308;20.924;2022-11-13T08:04:06;35.73;;;18.32;;
56173;SDS011;42058;52.308;20.924;2022-11-13T08:06:51;37.40;;;19.25;;
56173;SDS011;42058;52.308;20.924;2022-11-13T08:09:35;37.55;;;18.98;;
56173;SDS011;42058;52.308;20.924;2022-11-13T08:12:20;40.48;;;19.85;;
56173;SDS011;42058;52.308;20.924;2022-11-13T08:15:05;40.05;;;19.48;;
56173;SDS011;42058;52.308;20.924;2022-11-13T08:17:57;40.08;;;19.73;;
56173;SDS011;42058;52.308;20.924;2022-11-13T08:20:43;39.23;;;18.12;;
56173;SDS011;42058;52.308;20.924;2022-11-13T08:23:28;40.25;;;19.25;;
56173;SDS011;42058;52.308;20.924;2022-11-13T08:26:13;39.10;;;18.57;;
56173;SDS011;42058;52.308;20.924;2022-11-13T08:28:57;37.85;;;19.15;;
56173;SDS011;42058;52.308;20.924;2022-11-13T08:31:42;38.00;;;17.85;;
56173;SDS011;42058;52.308;20.924;2022-11-13T08:34:27;39.30;;;18.87;;
56173;SDS011;42058;52.308;20.924;2022-11-13T08:37:12;37.35;;;18.32;;
56173;SDS011;42058;52.308;20.924;2022-11-13T08:39:56;39.25;;;18.77;;
56173;SDS011;42058;52.308;20.924;2022-11-13T08:42:41;35.70;;;17.80;;
56173;SDS011;42058;52.308;20.924;2022-11-13T08:45:26;32.28;;;16.40;;
56173;SDS011;42058;52.308;20.924;2022-11-13T08:48:12;35.65;;;16.52;;
56173;SDS011;42058;52.308;20.924;2022-11-13T08:50:57;29.85;;;15.05;;
56173;SDS011;42058;52.308;20.924;2022-11-13T08:53:42;32.60;;;15.45;;
56173;SDS011;42058;52.308;20.924;2022-11-13T08:56:27;29.80;;;15.58;;
56173;SDS011;42058;52.308;20.924;2022-11-13T08:59:11;27.65;;;14.33;;
56173;SDS011;42058;52.308;20.924;2022-11-13T09:01:56;24.67;;;13.18;;
56173;SDS011;42058;52.308;20.924;2022-11-13T09:04:46;32.95;;;14.93;;
56173;SDS011;42058;52.308;20.924;2022-11-13T09:07:31;27.60;;;13.90;;
56173;SDS011;42058;52.308;20.924;2022-11-13T09:10:18;24.75;;;12.13;;
56173;SDS011;42058;52.308;20.924;2022-11-13T09:13:05;22.77;;;12.07;;
56173;SDS011;42058;52.308;20.924;2022-11-13T09:15:51;27.75;;;13.35;;
56173;SDS011;42058;52.308;20.924;2022-11-13T09:18:36;23.42;;;11.78;;
56173;SDS011;42058;52.308;20.924;2022-11-13T09:21:23;26.50;;;12.65;;
56173;SDS011;42058;52.308;20.924;2022-11-13T09:24:08;25.55;;;12.50;;
56173;SDS011;42058;52.308;20.924;2022-11-13T09:26:58;22.48;;;11.75;;
56173;SDS011;42058;52.308;20.924;2022-11-13T09:29:48;24.47;;;12.90;;
56173;SDS011;42058;52.308;20.924;2022-11-13T09:32:32;25.20;;;11.90;;
56173;SDS011;42058;52.308;20.924;2022-11-13T09:35:20;25.90;;;12.33;;
56173;SDS011;42058;52.308;20.924;2022-11-13T09:38:21;25.05;;;12.18;;
56173;SDS011;42058;52.308;20.924;2022-11-13T09:41:09;27.25;;;13.32;;
56173;SDS011;42058;52.308;20.924;2022-11-13T09:43:59;28.55;;;13.53;;
56173;SDS011;42058;52.308;20.924;2022-11-13T09:47:02;26.95;;;14.00;;
56173;SDS011;42058;52.308;20.924;2022-11-13T09:49:53;26.90;;;12.90;;
56173;SDS011;42058;52.308;20.924;2022-11-13T09:52:48;25.25;;;13.08;;
56173;SDS011;42058;52.308;20.924;2022-11-13T09:55:37;24.77;;;12.85;;
56173;SDS011;42058;52.308;20.924;2022-11-13T09:58:27;26.60;;;12.18;;
56173;SDS011;42058;52.308;20.924;2022-11-13T10:01:36;26.75;;;12.58;;
56173;SDS011;42058;52.308;20.924;2022-11-13T10:11:13;23.47;;;11.97;;
56173;SDS011;42058;52.308;20.924;2022-11-13T10:14:20;24.35;;;12.10;;
56173;SDS011;42058;52.308;20.924;2022-11-13T10:17:04;21.70;;;11.95;;
56173;SDS011;42058;52.308;20.924;2022-11-13T10:20:01;20.55;;;10.95;;
56173;SDS011;42058;52.308;20.924;2022-11-13T10:22:49;19.60;;;10.65;;
56173;SDS011;42058;52.308;20.924;2022-11-13T10:25:55;21.17;;;9.60;;
56173;SDS011;42058;52.308;20.924;2022-11-13T10:29:10;15.78;;;8.55;;
56173;SDS011;42058;52.308;20.924;2022-11-13T10:31:57;15.48;;;8.83;;
56173;SDS011;42058;52.308;20.924;2022-11-13T10:34:43;16.37;;;8.93;;
56173;SDS011;42058;52.308;20.924;2022-11-13T10:41:02;14.98;;;8.43;;
56173;SDS011;42058;52.308;20.924;2022-11-13T10:47:14;14.20;;;7.83;;
56173;SDS011;42058;52.308;20.924;2022-11-13T10:53:15;14.43;;;7.80;;
56173;SDS011;42058;52.308;20.924;2022-11-13T10:56:09;15.65;;;8.83;;
56173;SDS011;42058;52.308;20.924;2022-11-13T11:05:06;16.73;;;8.55;;
56173;SDS011;42058;52.308;20.924;2022-11-13T11:08:06;14.83;;;8.25;;
56173;SDS011;42058;52.308;20.924;2022-11-13T11:11:05;17.98;;;8.78;;
56173;SDS011;42058;52.308;20.924;2022-11-13T11:14:29;13.10;;;7.75;;
56173;SDS011;42058;52.308;20.924;2022-11-13T11:17:48;15.70;;;8.03;;
56173;SDS011;42058;52.308;20.924;2022-11-13T11:20:58;15.95;;;8.90;;
56173;SDS011;42058;52.308;20.924;2022-11-13T11:24:07;16.97;;;9.73;;
56173;SDS011;42058;52.308;20.924;2022-11-13T11:27:08;18.27;;;9.05;;
56173;SDS011;42058;52.308;20.924;2022-11-13T11:33:15;19.73;;;10.53;;
56173;SDS011;42058;52.308;20.924;2022-11-13T11:39:42;23.67;;;11.10;;
56173;SDS011;42058;52.308;20.924;2022-11-13T11:42:53;21.35;;;10.48;;
56173;SDS011;42058;52.308;20.924;2022-11-13T11:45:44;22.67;;;10.98;;
56173;SDS011;42058;52.308;20.924;2022-11-13T11:48:30;21.33;;;11.28;;
56173;SDS011;42058;52.308;20.924;2022-11-13T11:51:29;22.58;;;11.12;;
56173;SDS011;42058;52.308;20.924;2022-11-13T11:54:39;23.38;;;10.90;;
56173;SDS011;42058;52.308;20.924;2022-11-13T12:00:49;19.35;;;10.95;;
56173;SDS011;42058;52.308;20.924;2022-11-13T12:07:28;21.02;;;10.55;;
56173;SDS011;42058;52.308;20.924;2022-11-13T12:13:30;18.73;;;10.32;;
56173;SDS011;42058;52.308;20.924;2022-11-13T12:16:26;17.82;;;9.33;;
56173;SDS011;42058;52.308;20.924;2022-11-13T12:22:55;20.23;;;9.45;;
56173;SDS011;42058;52.308;20.924;2022-11-13T12:32:27;19.70;;;10.98;;
56173;SDS011;42058;52.308;20.924;2022-11-13T12:35:31;23.38;;;11.15;;
56173;SDS011;42058;52.308;20.924;2022-11-13T12:41:23;19.32;;;10.48;;
56173;SDS011;42058;52.308;20.924;2022-11-13T12:44:28;22.70;;;10.98;;
56173;SDS011;42058;52.308;20.924;2022-11-13T12:47:13;19.25;;;10.25;;
56173;SDS011;42058;52.308;20.924;2022-11-13T12:50:01;19.70;;;10.72;;
56173;SDS011;42058;52.308;20.924;2022-11-13T12:53:07;18.98;;;10.72;;
56173;SDS011;42058;52.308;20.924;2022-11-13T12:55:58;19.57;;;11.00;;
56173;SDS011;42058;52.308;20.924;2022-11-13T12:59:01;21.50;;;11.15;;
56173;SDS011;42058;52.308;20.924;2022-11-13T13:05:15;21.00;;;10.72;;
56173;SDS011;42058;52.308;20.924;2022-11-13T13:08:17;19.60;;;10.00;;
56173;SDS011;42058;52.308;20.924;2022-11-13T13:11:37;16.70;;;9.18;;
56173;SDS011;42058;52.308;20.924;2022-11-13T13:21:06;21.15;;;10.88;;
56173;SDS011;42058;52.308;20.924;2022-11-13T13:23:56;17.37;;;10.03;;
56173;SDS011;42058;52.308;20.924;2022-11-13T13:26:54;17.50;;;9.83;;
56173;SDS011;42058;52.308;20.924;2022-11-13T13:29:42;16.40;;;8.93;;
56173;SDS011;42058;52.308;20.924;2022-11-13T13:35:42;17.62;;;9.73;;
56173;SDS011;42058;52.308;20.924;2022-11-13T13:38:40;15.70;;;9.65;;
56173;SDS011;42058;52.308;20.924;2022-11-13T13:41:58;18.10;;;10.00;;
56173;SDS011;42058;52.308;20.924;2022-11-13T13:48:12;17.50;;;10.08;;
56173;SDS011;42058;52.308;20.924;2022-11-13T13:50:57;15.05;;;9.40;;
56173;SDS011;42058;52.308;20.924;2022-11-13T13:53:44;21.70;;;10.35;;
56173;SDS011;42058;52.308;20.924;2022-11-13T13:56:31;15.03;;;9.65;;
56173;SDS011;42058;52.308;20.924;2022-11-13T13:59:20;19.70;;;11.10;;
56173;SDS011;42058;52.308;20.924;2022-11-13T14:02:15;22.93;;;11.57;;
56173;SDS011;42058;52.308;20.924;2022-11-13T14:05:15;17.32;;;10.85;;
56173;SDS011;42058;52.308;20.924;2022-11-13T14:08:18;19.57;;;11.63;;
56173;SDS011;42058;52.308;20.924;2022-11-13T14:14:21;21.68;;;12.30;;
56173;SDS011;42058;52.308;20.924;2022-11-13T14:17:08;25.45;;;12.50;;
56173;SDS011;42058;52.308;20.924;2022-11-13T14:19:55;21.35;;;11.60;;
56173;SDS011;42058;52.308;20.924;2022-11-13T14:22:44;20.90;;;12.68;;
56173;SDS011;42058;52.308;20.924;2022-11-13T14:25:32;19.80;;;11.38;;
56173;SDS011;42058;52.308;20.924;2022-11-13T14:28:19;20.68;;;10.75;;
56173;SDS011;42058;52.308;20.924;2022-11-13T14:31:07;22.13;;;11.38;;
56173;SDS011;42058;52.308;20.924;2022-11-13T14:33:55;18.50;;;10.72;;
56173;SDS011;42058;52.308;20.924;2022-11-13T14:36:43;17.27;;;9.80;;
56173;SDS011;42058;52.308;20.924;2022-11-13T14:39:30;22.42;;;10.82;;
56173;SDS011;42058;52.308;20.924;2022-11-13T14:42:17;19.87;;;11.12;;
56173;SDS011;42058;52.308;20.924;2022-11-13T14:45:20;19.82;;;10.95;;
56173;SDS011;42058;52.308;20.924;2022-11-13T14:48:21;16.95;;;10.03;;
56173;SDS011;42058;52.308;20.924;2022-11-13T14:51:21;21.00;;;9.90;;
56173;SDS011;42058;52.308;20.924;2022-11-13T14:54:25;21.77;;;10.43;;
56173;SDS011;42058;52.308;20.924;2022-11-13T14:57:18;21.20;;;11.10;;
56173;SDS011;42058;52.308;20.924;2022-11-13T15:00:15;24.15;;;12.60;;
56173;SDS011;42058;52.308;20.924;2022-11-13T15:03:03;23.77;;;12.82;;
56173;SDS011;42058;52.308;20.924;2022-11-13T15:05:49;54.88;;;24.02;;
56173;SDS011;42058;52.308;20.924;2022-11-13T15:08:34;43.17;;;19.80;;
56173;SDS011;42058;52.308;20.924;2022-11-13T15:11:21;30.33;;;15.63;;
56173;SDS011;42058;52.308;20.924;2022-11-13T15:14:09;27.37;;;14.87;;
56173;SDS011;42058;52.308;20.924;2022-11-13T15:17:00;26.65;;;14.58;;
56173;SDS011;42058;52.308;20.924;2022-11-13T15:19:45;24.82;;;13.68;;
56173;SDS011;42058;52.308;20.924;2022-11-13T15:22:32;27.15;;;15.05;;
56173;SDS011;42058;52.308;20.924;2022-11-13T15:25:19;27.07;;;15.13;;
56173;SDS011;42058;52.308;20.924;2022-11-13T15:28:06;30.27;;;15.65;;
56173;SDS011;42058;52.308;20.924;2022-11-13T15:30:51;30.00;;;15.00;;
56173;SDS011;42058;52.308;20.924;2022-11-13T15:33:36;29.10;;;15.10;;
56173;SDS011;42058;52.308;20.924;2022-11-13T15:36:22;29.98;;;16.23;;
56173;SDS011;42058;52.308;20.924;2022-11-13T15:39:07;32.28;;;15.90;;
56173;SDS011;42058;52.308;20.924;2022-11-13T15:41:52;31.10;;;15.60;;
56173;SDS011;42058;52.308;20.924;2022-11-13T15:44:37;31.15;;;16.67;;
56173;SDS011;42058;52.308;20.924;2022-11-13T15:47:26;30.17;;;15.72;;
56173;SDS011;42058;52.308;20.924;2022-11-13T15:50:17;33.18;;;16.05;;
56173;SDS011;42058;52.308;20.924;2022-11-13T15:53:03;32.00;;;18.02;;
56173;SDS011;42058;52.308;20.924;2022-11-13T15:55:49;32.10;;;17.87;;
56173;SDS011;42058;52.308;20.924;2022-11-13T15:58:38;33.65;;;18.85;;
56173;SDS011;42058;52.308;20.924;2022-11-13T16:01:23;38.20;;;20.00;;
56173;SDS011;42058;52.308;20.924;2022-11-13T16:04:14;31.05;;;17.45;;
56173;SDS011;42058;52.308;20.924;2022-11-13T16:06:58;38.10;;;19.75;;
56173;SDS011;42058;52.308;20.924;2022-11-13T16:09:43;36.50;;;20.43;;
56173;SDS011;42058;52.308;20.924;2022-11-13T16:12:28;53.78;;;29.82;;
56173;SDS011;42058;52.308;20.924;2022-11-13T16:15:14;65.70;;;35.58;;
56173;SDS011;42058;52.308;20.924;2022-11-13T16:18:02;51.98;;;29.60;;
56173;SDS011;42058;52.308;20.924;2022-11-13T16:20:46;43.28;;;24.15;;
56173;SDS011;42058;52.308;20.924;2022-11-13T16:23:31;38.42;;;21.23;;
56173;SDS011;42058;52.308;20.924;2022-11-13T16:26:22;38.08;;;20.02;;
56173;SDS011;42058;52.308;20.924;2022-11-13T16:29:16;41.00;;;21.37;;
56173;SDS011;42058;52.308;20.924;2022-11-13T16:32:04;34.92;;;20.45;;
56173;SDS011;42058;52.308;20.924;2022-11-13T16:34:49;38.02;;;19.98;;
56173;SDS011;42058;52.308;20.924;2022-11-13T16:37:33;36.95;;;19.73;;
56173;SDS011;42058;52.308;20.924;2022-11-13T16:40:20;44.35;;;21.00;;
56173;SDS011;42058;52.308;20.924;2022-11-13T16:43:08;38.55;;;21.27;;
56173;SDS011;42058;52.308;20.924;2022-11-13T16:45:53;36.67;;;20.80;;
56173;SDS011;42058;52.308;20.924;2022-11-13T16:48:38;34.00;;;19.15;;
56173;SDS011;42058;52.308;20.924;2022-11-13T16:51:24;35.20;;;19.75;;
56173;SDS011;42058;52.308;20.924;2022-11-13T16:54:08;36.95;;;19.90;;
56173;SDS011;42058;52.308;20.924;2022-11-13T16:56:53;39.67;;;20.75;;
56173;SDS011;42058;52.308;20.924;2022-11-13T16:59:38;38.70;;;20.85;;
56173;SDS011;42058;52.308;20.924;2022-11-13T17:02:23;45.85;;;21.57;;
56173;SDS011;42058;52.308;20.924;2022-11-13T17:05:13;36.10;;;19.25;;
56173;SDS011;42058;52.308;20.924;2022-11-13T17:07:59;35.60;;;19.98;;
56173;SDS011;42058;52.308;20.924;2022-11-13T17:10:45;34.18;;;17.92;;
56173;SDS011;42058;52.308;20.924;2022-11-13T17:13:33;35.52;;;18.45;;
56173;SDS011;42058;52.308;20.924;2022-11-13T17:16:19;33.00;;;17.02;;
56173;SDS011;42058;52.308;20.924;2022-11-13T17:19:04;34.03;;;16.65;;
56173;SDS011;42058;52.308;20.924;2022-11-13T17:21:50;34.35;;;17.37;;
56173;SDS011;42058;52.308;20.924;2022-11-13T17:24:35;30.95;;;16.50;;
56173;SDS011;42058;52.308;20.924;2022-11-13T17:27:21;28.02;;;15.60;;
56173;SDS011;42058;52.308;20.924;2022-11-13T17:30:06;33.02;;;16.62;;
56173;SDS011;42058;52.308;20.924;2022-11-13T17:32:52;30.27;;;16.48;;